createdAt,value
2023-03-22T00:02:35.695Z,59.99
2023-03-22T00:05:36.757Z,60.10
2023-03-22T00:08:38.078Z,60.10
2023-03-22T00:11:39.121Z,60.30
2023-03-22T00:14:40.695Z,60.36
2023-03-22T00:17:41.661Z,60.49
2023-03-22T00:20:50.074Z,60.63
2023-03-22T00:23:51.316Z,60.72
2023-03-22T00:26:52.483Z,60.86
2023-03-22T00:29:53.479Z,61.00
2023-03-22T00:32:54.393Z,60.97
2023-03-22T00:36:07.604Z,61.07
2023-03-22T00:39:08.647Z,61.08
2023-03-22T00:42:10.343Z,61.17
2023-03-22T00:45:11.948Z,61.13
2023-03-22T00:48:13.125Z,61.20
2023-03-22T00:51:14.965Z,61.28
2023-03-22T00:54:34.824Z,61.36
2023-03-22T00:57:37.186Z,61.45
2023-03-22T01:00:38.636Z,61.43
2023-03-22T01:03:41.289Z,61.51
2023-03-22T01:06:42.492Z,61.56
2023-03-22T01:09:44.828Z,61.74
2023-03-22T01:12:48.553Z,61.79
2023-03-22T01:15:50.592Z,61.88
2023-03-22T01:18:51.840Z,61.90
2023-03-22T01:21:54.076Z,61.91
2023-03-22T01:24:55.025Z,61.90
2023-03-22T01:27:56.107Z,61.83
2023-03-22T01:31:00.740Z,61.95
2023-03-22T01:34:01.801Z,61.95
2023-03-22T01:37:03.229Z,61.88
2023-03-22T01:40:06.315Z,62.04
2023-03-22T01:43:14.512Z,61.99
2023-03-22T01:46:15.656Z,62.07
2023-03-22T01:49:21.730Z,62.05
2023-03-22T01:52:24.160Z,62.20
2023-03-22T01:55:34.879Z,62.23
2023-03-22T01:58:50.516Z,62.40
2023-03-22T02:01:53.542Z,62.45
2023-03-22T02:04:57.342Z,62.57
2023-03-22T02:07:58.794Z,62.70
2023-03-22T02:11:01.302Z,62.62
2023-03-22T02:14:29.334Z,62.55
2023-03-22T02:17:59.320Z,62.69
2023-03-22T02:21:35.456Z,62.51
2023-03-22T02:24:54.933Z,62.54
2023-03-22T02:28:21.475Z,62.45
2023-03-22T02:31:31.421Z,62.49
2023-03-22T02:34:32.633Z,62.60
2023-03-22T02:37:42.646Z,62.67
2023-03-22T02:41:05.804Z,62.62
2023-03-22T02:44:34.293Z,62.74
2023-03-22T02:48:02.303Z,62.96
2023-03-22T02:51:07.956Z,63.23
2023-03-22T02:54:21.115Z,63.39
2023-03-22T02:57:43.902Z,63.54
2023-03-22T03:00:45.952Z,63.68
2023-03-22T03:03:49.562Z,63.72
2023-03-22T03:06:51.749Z,63.59
2023-03-22T03:09:53.133Z,63.61
2023-03-22T03:12:54.461Z,63.61
2023-03-22T03:16:00.705Z,63.70
2023-03-22T03:19:10.973Z,63.72
2023-03-22T03:22:24.258Z,63.77
2023-03-22T03:25:45.758Z,63.71
2023-03-22T03:29:08.502Z,63.89
2023-03-22T03:32:17.114Z,63.99
2023-03-22T03:35:24.999Z,64.08
2023-03-22T03:38:28.839Z,64.21
2023-03-22T03:41:30.225Z,64.43
2023-03-22T03:44:32.241Z,64.57
2023-03-22T03:47:33.926Z,64.70
2023-03-22T03:50:35.237Z,64.93
2023-03-22T03:53:36.289Z,64.70
2023-03-22T03:56:37.445Z,64.80
2023-03-22T03:59:38.433Z,64.80
2023-03-22T04:02:45.897Z,64.73
2023-03-22T04:06:00.449Z,64.67
2023-03-22T04:09:01.866Z,64.64
2023-03-22T04:12:05.533Z,64.62
2023-03-22T04:15:07.268Z,64.52
2023-03-22T04:18:10.584Z,64.67
2023-03-22T04:21:12.687Z,64.72
2023-03-22T04:24:20.952Z,64.94
2023-03-22T04:27:24.327Z,65.08
2023-03-22T04:30:35.489Z,65.21
2023-03-22T04:33:38.707Z,65.25
2023-03-22T04:36:49.149Z,65.47
2023-03-22T04:39:57.198Z,65.42
2023-03-22T04:43:09.919Z,65.43
2023-03-22T04:46:25.269Z,65.44
2023-03-22T04:49:38.873Z,65.34
2023-03-22T04:52:40.974Z,65.31
2023-03-22T04:55:43.087Z,65.32
2023-03-22T04:58:44.525Z,65.29
2023-03-22T05:01:47.706Z,65.40
2023-03-22T05:04:50.973Z,65.37
2023-03-22T05:08:06.059Z,65.54
2023-03-22T05:11:10.087Z,65.67
2023-03-22T05:14:13.718Z,65.72
2023-03-22T05:17:15.782Z,65.84
2023-03-22T05:20:18.384Z,65.96
2023-03-22T05:23:24.084Z,66.25
2023-03-22T05:26:28.313Z,66.28
2023-03-22T05:29:36.171Z,66.23
2023-03-22T05:32:44.012Z,66.36
2023-03-22T05:35:51.413Z,66.37
2023-03-22T05:38:52.858Z,66.38
2023-03-22T05:41:54.018Z,66.24
2023-03-22T05:45:03.044Z,66.41
2023-03-22T05:48:07.221Z,66.41
2023-03-22T05:51:16.989Z,66.41
2023-03-22T05:54:18.175Z,66.36
2023-03-22T05:57:23.189Z,66.53
2023-03-22T06:00:24.872Z,66.73
2023-03-22T06:03:44.067Z,66.77
2023-03-22T06:06:54.904Z,66.91
2023-03-22T06:10:09.017Z,67.03
2023-03-22T06:13:10.500Z,67.11
2023-03-22T06:16:11.625Z,67.09
2023-03-22T06:19:12.802Z,67.11
2023-03-22T06:22:13.769Z,67.08
2023-03-22T06:25:14.990Z,66.99
2023-03-22T06:28:17.290Z,67.02
2023-03-22T06:31:25.934Z,66.88
2023-03-22T06:34:31.500Z,66.93
2023-03-22T06:37:32.563Z,66.89
2023-03-22T06:40:35.047Z,67.07
2023-03-22T06:43:36.363Z,66.95
2023-03-22T06:46:55.895Z,66.99
2023-03-22T06:50:10.764Z,67.01
2023-03-22T06:53:36.990Z,67.24
2023-03-22T06:56:38.209Z,67.41
2023-03-22T06:59:40.091Z,67.55
2023-03-22T07:02:41.068Z,67.65
2023-03-22T07:05:52.089Z,67.57
2023-03-22T07:08:53.222Z,67.45
2023-03-22T07:11:58.433Z,67.36
2023-03-22T07:14:59.554Z,67.20
2023-03-22T07:18:22.248Z,66.99
2023-03-22T07:21:23.383Z,66.86
2023-03-22T07:24:28.671Z,66.67
2023-03-22T07:27:29.773Z,66.38
2023-03-22T07:30:31.041Z,66.32
2023-03-22T07:33:32.105Z,66.33
2023-03-22T07:36:33.376Z,66.17
2023-03-22T07:39:34.842Z,66.03
2023-03-22T07:42:36.809Z,65.91
2023-03-22T07:45:52.924Z,65.69
2023-03-22T07:49:23.197Z,65.65
2023-03-22T07:52:40.961Z,65.64
2023-03-22T07:55:41.929Z,65.65
2023-03-22T07:58:42.889Z,65.63
2023-03-22T08:01:44.038Z,65.53
2023-03-22T08:05:14.039Z,65.46
2023-03-22T08:08:17.198Z,65.29
2023-03-22T08:11:19.287Z,64.98
2023-03-22T08:14:30.628Z,64.57
2023-03-22T08:17:37.567Z,64.24
2023-03-22T08:20:55.729Z,63.88
2023-03-22T08:23:56.749Z,63.55
2023-03-22T08:27:16.700Z,63.24
2023-03-22T08:30:24.011Z,62.97
2023-03-22T08:33:25.069Z,62.62
2023-03-22T08:36:26.542Z,62.32
2023-03-22T08:39:33.270Z,62.08
2023-03-22T08:42:53.481Z,61.69
2023-03-22T08:45:54.671Z,61.40
2023-03-22T08:48:58.885Z,61.13
2023-03-22T08:52:08.012Z,60.90
2023-03-22T08:55:39.297Z,60.68
2023-03-22T08:58:45.957Z,60.48
2023-03-22T09:02:06.897Z,60.37
2023-03-22T09:05:08.866Z,60.11
2023-03-22T09:08:18.555Z,59.93
2023-03-22T09:11:22.712Z,59.63
2023-03-22T09:14:23.838Z,59.40
2023-03-22T09:17:25.192Z,59.25
2023-03-22T09:20:26.777Z,59.01
2023-03-22T09:23:31.278Z,58.87
2023-03-22T09:26:32.895Z,58.66
2023-03-22T09:29:34.130Z,58.21
2023-03-22T09:32:37.430Z,58.14
2023-03-22T09:35:43.065Z,57.87
2023-03-22T09:38:46.063Z,57.76
2023-03-22T09:41:51.677Z,57.47
2023-03-22T09:44:53.842Z,57.12
2023-03-22T09:47:59.013Z,56.88
2023-03-22T09:51:01.504Z,56.79
2023-03-22T09:54:02.705Z,56.46
2023-03-22T09:57:08.629Z,56.18
2023-03-22T10:00:20.481Z,55.94
2023-03-22T10:03:30.560Z,55.59
2023-03-22T10:06:31.571Z,55.09
2023-03-22T10:10:09.251Z,54.97
2023-03-22T10:13:23.560Z,55.03
2023-03-22T10:16:28.153Z,54.69
2023-03-22T10:19:35.000Z,54.64
2023-03-22T10:22:40.354Z,54.78
2023-03-22T10:25:42.750Z,54.64
2023-03-22T10:28:44.875Z,54.23
2023-03-22T10:31:45.871Z,53.96
2023-03-22T10:34:46.837Z,53.77
2023-03-22T10:37:48.875Z,53.50
2023-03-22T10:40:51.106Z,53.35
2023-03-22T10:43:54.945Z,53.16
2023-03-22T10:46:58.772Z,52.88
2023-03-22T10:50:03.080Z,52.65
2023-03-22T10:53:07.709Z,52.59
2023-03-22T10:56:19.450Z,52.54
2023-03-22T10:59:46.716Z,52.21
2023-03-22T11:02:52.836Z,51.77
2023-03-22T11:06:00.794Z,51.66
2023-03-22T11:09:11.837Z,51.50
2023-03-22T11:12:12.744Z,51.34
2023-03-22T11:15:24.400Z,51.20
2023-03-22T11:18:30.244Z,50.91
2023-03-22T11:21:32.672Z,50.55
2023-03-22T11:24:34.023Z,50.12
2023-03-22T11:27:36.357Z,49.43
2023-03-22T11:30:37.433Z,49.32
2023-03-22T11:33:53.191Z,49.04
2023-03-22T11:36:56.259Z,48.53
2023-03-22T11:40:01.007Z,48.50
2023-03-22T11:43:22.836Z,48.33
2023-03-22T11:46:24.008Z,48.00
2023-03-22T11:49:32.185Z,47.62
2023-03-22T11:52:33.148Z,47.39
2023-03-22T11:55:35.290Z,47.21
2023-03-22T11:58:39.134Z,46.81
2023-03-22T12:01:45.146Z,46.64
2023-03-22T12:04:47.670Z,46.32
2023-03-22T12:07:53.166Z,46.00
2023-03-22T12:11:02.095Z,45.63
2023-03-22T12:14:27.817Z,45.40
2023-03-22T12:17:38.507Z,45.07
2023-03-22T12:20:52.986Z,44.87
2023-03-22T12:23:58.419Z,44.50
2023-03-22T12:27:06.854Z,44.35
2023-03-22T12:30:20.411Z,44.36
2023-03-22T12:33:27.087Z,43.98
2023-03-22T12:36:42.322Z,43.79
2023-03-22T12:39:48.662Z,43.38
2023-03-22T12:42:59.690Z,43.22
2023-03-22T12:46:03.002Z,43.33
2023-03-22T12:49:22.820Z,43.05
2023-03-22T12:52:48.518Z,42.57
2023-03-22T12:55:50.746Z,42.50
2023-03-22T12:58:55.525Z,42.40
2023-03-22T13:02:16.093Z,42.07
2023-03-22T13:05:18.196Z,41.86
2023-03-22T13:08:20.973Z,41.61
2023-03-22T13:11:23.127Z,41.16
2023-03-22T13:14:51.655Z,41.10
2023-03-22T13:17:52.602Z,40.83
2023-03-22T13:21:12.720Z,40.68
2023-03-22T13:24:14.721Z,40.53
2023-03-22T13:27:15.860Z,40.36
2023-03-22T13:30:36.336Z,40.33
2023-03-22T13:33:38.006Z,39.96
2023-03-22T13:36:39.251Z,39.85
2023-03-22T13:39:40.262Z,39.53
2023-03-22T13:42:41.571Z,39.54
2023-03-22T13:46:12.027Z,39.20
2023-03-22T13:49:38.487Z,39.12
2023-03-22T13:52:41.773Z,39.18
2023-03-22T13:55:45.567Z,39.04
2023-03-22T13:58:52.418Z,38.86
2023-03-22T14:02:04.078Z,38.39
2023-03-22T14:05:15.755Z,38.28
2023-03-22T14:08:28.610Z,38.40
2023-03-22T14:11:37.707Z,38.11
2023-03-22T14:14:46.352Z,37.69
2023-03-22T14:17:53.302Z,37.63
2023-03-22T14:20:59.829Z,37.27
